KLAR/LAR METAR and TAF weather

Enter ICAO airport designator
Station Type Date Time Source
KLAR METAR 2021/09/23 22:53 UTC NOAA

KLAR 232253Z AUTO 01010KT 10SM CLR 19/M06 A3022 RMK AO2 SLP151 T01891056


Station Type Date Time Source
KLAR Decoded METAR 2021/09/23 22:53 UTC NOAA

LARAMIE REGIONAL AIRPORT, WY, United States (KLAR) 41-19N 105-40W 2216M
Sep 23, 2021 - 06:53 PM EDT / 2021.09.23 2253 UTC
Wind: from the N (010 degrees) at 12 MPH (10 KT):0
Visibility: 10 mile(s):0
Sky conditions: clear
Temperature: 66.0 F (18.9 C)
Dew Point: 21.9 F (-5.6 C)
Relative Humidity: 18%
Pressure (altimeter): 30.22 in. Hg (1023 hPa)
ob: KLAR 232253Z AUTO 01010KT 10SM CLR 19/M06 A3022 RMK AO2 SLP151 T01891056
cycle: 23

Station Type Date Time Source
KLAR TAF 2021/09/23 18:24 UTC NOAA

TAF KLAR 231721Z 2318/2418 34007KT P6SM SCT250
FM232300 35010G20KT P6SM BKN200
FM240100 01007KT P6SM SCT200
FM240300 30006KT P6SM FEW200

Example: see airport list